sensor_id;sensor_type;location;lat;lon;timestamp;temperature;humidity
16517;DHT22;8371;52.272;9.746;2023-06-24T00:00:20;16.00;81.50
16517;DHT22;8371;52.272;9.746;2023-06-24T00:02:45;15.90;81.50
16517;DHT22;8371;52.272;9.746;2023-06-24T00:05:11;15.90;81.50
16517;DHT22;8371;52.272;9.746;2023-06-24T00:07:36;15.90;81.60
16517;DHT22;8371;52.272;9.746;2023-06-24T00:10:05;15.80;81.70
16517;DHT22;8371;52.272;9.746;2023-06-24T00:12:32;15.80;81.70
16517;DHT22;8371;52.272;9.746;2023-06-24T00:14:58;15.80;81.90
16517;DHT22;8371;52.272;9.746;2023-06-24T00:17:24;15.70;81.80
16517;DHT22;8371;52.272;9.746;2023-06-24T00:19:49;15.70;81.90
16517;DHT22;8371;52.272;9.746;2023-06-24T00:22:15;15.70;82.00
16517;DHT22;8371;52.272;9.746;2023-06-24T00:24:40;15.60;82.10
16517;DHT22;8371;52.272;9.746;2023-06-24T00:27:08;15.70;82.30
16517;DHT22;8371;52.272;9.746;2023-06-24T00:29:36;15.60;82.40
16517;DHT22;8371;52.272;9.746;2023-06-24T00:32:03;15.60;82.50
16517;DHT22;8371;52.272;9.746;2023-06-24T00:34:28;15.60;82.60
16517;DHT22;8371;52.272;9.746;2023-06-24T00:36:54;15.50;82.70
16517;DHT22;8371;52.272;9.746;2023-06-24T00:39:20;15.50;82.70
16517;DHT22;8371;52.272;9.746;2023-06-24T00:41:46;15.50;82.80
16517;DHT22;8371;52.272;9.746;2023-06-24T00:44:12;15.40;82.90
16517;DHT22;8371;52.272;9.746;2023-06-24T00:46:38;15.40;83.00
16517;DHT22;8371;52.272;9.746;2023-06-24T00:49:05;15.30;83.20
16517;DHT22;8371;52.272;9.746;2023-06-24T00:51:33;15.30;83.40
16517;DHT22;8371;52.272;9.746;2023-06-24T00:54:00;15.30;83.40
16517;DHT22;8371;52.272;9.746;2023-06-24T00:56:30;15.30;83.50
16517;DHT22;8371;52.272;9.746;2023-06-24T00:58:57;15.30;83.60
16517;DHT22;8371;52.272;9.746;2023-06-24T01:01:24;15.30;83.80
16517;DHT22;8371;52.272;9.746;2023-06-24T01:03:49;15.20;83.80
16517;DHT22;8371;52.272;9.746;2023-06-24T01:06:15;15.20;83.90
16517;DHT22;8371;52.272;9.746;2023-06-24T01:08:41;15.20;84.00
16517;DHT22;8371;52.272;9.746;2023-06-24T01:11:07;15.20;84.10
16517;DHT22;8371;52.272;9.746;2023-06-24T01:13:33;15.20;84.10
16517;DHT22;8371;52.272;9.746;2023-06-24T01:16:02;15.10;84.20
16517;DHT22;8371;52.272;9.746;2023-06-24T01:18:40;15.20;84.30
16517;DHT22;8371;52.272;9.746;2023-06-24T01:21:15;15.10;84.40
16517;DHT22;8371;52.272;9.746;2023-06-24T01:32:31;15.10;84.60
16517;DHT22;8371;52.272;9.746;2023-06-24T01:35:01;15.10;84.70
16517;DHT22;8371;52.272;9.746;2023-06-24T01:37:43;15.00;84.60
16517;DHT22;8371;52.272;9.746;2023-06-24T01:42:45;15.00;84.80
16517;DHT22;8371;52.272;9.746;2023-06-24T01:45:19;15.00;84.90
16517;DHT22;8371;52.272;9.746;2023-06-24T01:47:46;15.00;85.00
16517;DHT22;8371;52.272;9.746;2023-06-24T01:50:13;14.90;85.10
16517;DHT22;8371;52.272;9.746;2023-06-24T01:52:43;14.90;85.20
16517;DHT22;8371;52.272;9.746;2023-06-24T01:55:10;14.90;85.50
16517;DHT22;8371;52.272;9.746;2023-06-24T01:57:38;14.90;85.40
16517;DHT22;8371;52.272;9.746;2023-06-24T02:00:08;14.90;85.40
16517;DHT22;8371;52.272;9.746;2023-06-24T02:02:36;14.90;85.50
16517;DHT22;8371;52.272;9.746;2023-06-24T02:05:04;14.90;85.60
16517;DHT22;8371;52.272;9.746;2023-06-24T02:07:32;14.90;85.60
16517;DHT22;8371;52.272;9.746;2023-06-24T02:09:59;14.80;85.70
16517;DHT22;8371;52.272;9.746;2023-06-24T02:12:26;14.80;85.70
16517;DHT22;8371;52.272;9.746;2023-06-24T02:14:54;14.80;85.80
16517;DHT22;8371;52.272;9.746;2023-06-24T02:17:26;14.80;85.90
16517;DHT22;8371;52.272;9.746;2023-06-24T02:19:54;14.80;86.10
16517;DHT22;8371;52.272;9.746;2023-06-24T02:22:21;14.80;86.10
16517;DHT22;8371;52.272;9.746;2023-06-24T02:24:49;14.80;86.10
16517;DHT22;8371;52.272;9.746;2023-06-24T02:27:16;14.80;86.10
16517;DHT22;8371;52.272;9.746;2023-06-24T02:29:42;14.80;86.20
16517;DHT22;8371;52.272;9.746;2023-06-24T02:32:08;14.80;86.20
16517;DHT22;8371;52.272;9.746;2023-06-24T02:34:34;14.70;86.10
16517;DHT22;8371;52.272;9.746;2023-06-24T02:37:00;14.70;86.10
16517;DHT22;8371;52.272;9.746;2023-06-24T02:39:26;14.70;86.30
16517;DHT22;8371;52.272;9.746;2023-06-24T02:41:51;14.70;86.20
16517;DHT22;8371;52.272;9.746;2023-06-24T02:44:17;14.70;86.30
16517;DHT22;8371;52.272;9.746;2023-06-24T02:46:45;14.70;86.20
16517;DHT22;8371;52.272;9.746;2023-06-24T02:49:13;14.70;86.30
16517;DHT22;8371;52.272;9.746;2023-06-24T02:51:41;14.70;86.30
16517;DHT22;8371;52.272;9.746;2023-06-24T02:54:07;14.60;86.30
16517;DHT22;8371;52.272;9.746;2023-06-24T02:56:35;14.60;86.50
16517;DHT22;8371;52.272;9.746;2023-06-24T02:59:00;14.60;86.60
16517;DHT22;8371;52.272;9.746;2023-06-24T03:01:26;14.60;86.70
16517;DHT22;8371;52.272;9.746;2023-06-24T03:03:54;14.60;87.50
16517;DHT22;8371;52.272;9.746;2023-06-24T03:06:20;14.50;86.70
16517;DHT22;8371;52.272;9.746;2023-06-24T03:08:47;14.50;86.90
16517;DHT22;8371;52.272;9.746;2023-06-24T03:11:13;14.50;86.90
16517;DHT22;8371;52.272;9.746;2023-06-24T03:13:39;14.60;87.10
16517;DHT22;8371;52.272;9.746;2023-06-24T03:16:05;14.50;87.10
16517;DHT22;8371;52.272;9.746;2023-06-24T03:18:31;14.50;87.30
16517;DHT22;8371;52.272;9.746;2023-06-24T03:20:56;14.50;87.30
16517;DHT22;8371;52.272;9.746;2023-06-24T03:23:22;14.60;87.50
16517;DHT22;8371;52.272;9.746;2023-06-24T03:25:48;14.60;87.60
16517;DHT22;8371;52.272;9.746;2023-06-24T03:28:13;14.50;87.70
16517;DHT22;8371;52.272;9.746;2023-06-24T03:30:39;14.60;88.00
16517;DHT22;8371;52.272;9.746;2023-06-24T03:33:05;14.60;88.10
16517;DHT22;8371;52.272;9.746;2023-06-24T03:35:31;14.60;87.90
16517;DHT22;8371;52.272;9.746;2023-06-24T03:37:58;14.70;87.90
16517;DHT22;8371;52.272;9.746;2023-06-24T03:40:24;14.70;88.00
16517;DHT22;8371;52.272;9.746;2023-06-24T03:42:49;14.80;88.50
16517;DHT22;8371;52.272;9.746;2023-06-24T03:45:15;14.80;89.20
16517;DHT22;8371;52.272;9.746;2023-06-24T03:47:41;14.90;89.80
16517;DHT22;8371;52.272;9.746;2023-06-24T03:50:07;15.10;90.20
16517;DHT22;8371;52.272;9.746;2023-06-24T03:52:33;15.30;90.50
16517;DHT22;8371;52.272;9.746;2023-06-24T03:54:59;15.50;90.70
16517;DHT22;8371;52.272;9.746;2023-06-24T03:57:26;15.70;90.90
16517;DHT22;8371;52.272;9.746;2023-06-24T03:59:52;15.90;91.20
16517;DHT22;8371;52.272;9.746;2023-06-24T04:02:18;16.20;91.30
16517;DHT22;8371;52.272;9.746;2023-06-24T04:04:43;16.50;91.40
16517;DHT22;8371;52.272;9.746;2023-06-24T04:07:09;16.80;91.60
16517;DHT22;8371;52.272;9.746;2023-06-24T04:09:35;17.10;91.40
16517;DHT22;8371;52.272;9.746;2023-06-24T04:12:01;17.40;91.30
16517;DHT22;8371;52.272;9.746;2023-06-24T04:14:28;17.70;91.20
16517;DHT22;8371;52.272;9.746;2023-06-24T04:16:54;18.00;91.00
16517;DHT22;8371;52.272;9.746;2023-06-24T04:19:19;18.30;90.90
16517;DHT22;8371;52.272;9.746;2023-06-24T04:21:45;18.60;90.70
16517;DHT22;8371;52.272;9.746;2023-06-24T04:24:11;18.90;90.40
16517;DHT22;8371;52.272;9.746;2023-06-24T04:26:36;19.20;90.10
16517;DHT22;8371;52.272;9.746;2023-06-24T04:29:02;19.50;89.80
16517;DHT22;8371;52.272;9.746;2023-06-24T04:31:28;19.70;89.20
16517;DHT22;8371;52.272;9.746;2023-06-24T04:33:54;19.90;88.90
16517;DHT22;8371;52.272;9.746;2023-06-24T04:36:19;20.20;88.80
16517;DHT22;8371;52.272;9.746;2023-06-24T04:38:45;20.40;88.40
16517;DHT22;8371;52.272;9.746;2023-06-24T04:41:10;20.60;88.10
16517;DHT22;8371;52.272;9.746;2023-06-24T04:43:36;20.80;87.90
16517;DHT22;8371;52.272;9.746;2023-06-24T04:46:02;21.00;87.40
16517;DHT22;8371;52.272;9.746;2023-06-24T04:48:28;21.30;87.20
16517;DHT22;8371;52.272;9.746;2023-06-24T04:50:53;21.50;86.60
16517;DHT22;8371;52.272;9.746;2023-06-24T04:53:21;21.70;86.10
16517;DHT22;8371;52.272;9.746;2023-06-24T04:55:46;21.90;85.70
16517;DHT22;8371;52.272;9.746;2023-06-24T04:58:12;22.00;85.20
16517;DHT22;8371;52.272;9.746;2023-06-24T05:00:38;22.20;85.00
16517;DHT22;8371;52.272;9.746;2023-06-24T05:03:03;22.40;84.80
16517;DHT22;8371;52.272;9.746;2023-06-24T05:05:30;22.60;84.40
16517;DHT22;8371;52.272;9.746;2023-06-24T05:07:55;22.70;83.90
16517;DHT22;8371;52.272;9.746;2023-06-24T05:10:21;22.90;84.50
16517;DHT22;8371;52.272;9.746;2023-06-24T05:12:47;23.00;83.30
16517;DHT22;8371;52.272;9.746;2023-06-24T05:15:12;23.10;83.00
16517;DHT22;8371;52.272;9.746;2023-06-24T05:17:39;23.20;82.50
16517;DHT22;8371;52.272;9.746;2023-06-24T05:20:05;23.30;82.20
16517;DHT22;8371;52.272;9.746;2023-06-24T05:22:31;23.40;82.20
16517;DHT22;8371;52.272;9.746;2023-06-24T05:24:57;23.50;81.60
16517;DHT22;8371;52.272;9.746;2023-06-24T05:27:23;23.50;81.70
16517;DHT22;8371;52.272;9.746;2023-06-24T05:29:48;23.60;81.50
16517;DHT22;8371;52.272;9.746;2023-06-24T05:32:14;23.70;81.30
16517;DHT22;8371;52.272;9.746;2023-06-24T05:34:40;23.80;80.80
16517;DHT22;8371;52.272;9.746;2023-06-24T05:37:05;23.80;80.10
16517;DHT22;8371;52.272;9.746;2023-06-24T05:39:31;23.90;80.00
16517;DHT22;8371;52.272;9.746;2023-06-24T05:41:57;23.90;80.00
16517;DHT22;8371;52.272;9.746;2023-06-24T05:44:23;24.00;79.70
16517;DHT22;8371;52.272;9.746;2023-06-24T05:46:49;24.00;79.50
16517;DHT22;8371;52.272;9.746;2023-06-24T05:49:14;24.00;79.30
16517;DHT22;8371;52.272;9.746;2023-06-24T05:51:40;24.10;79.50
16517;DHT22;8371;52.272;9.746;2023-06-24T05:54:06;24.10;79.30
16517;DHT22;8371;52.272;9.746;2023-06-24T05:56:33;24.20;79.40
16517;DHT22;8371;52.272;9.746;2023-06-24T05:58:59;24.20;79.50
16517;DHT22;8371;52.272;9.746;2023-06-24T06:01:24;24.30;79.20
16517;DHT22;8371;52.272;9.746;2023-06-24T06:03:50;24.40;79.30
16517;DHT22;8371;52.272;9.746;2023-06-24T06:06:16;24.50;79.00
16517;DHT22;8371;52.272;9.746;2023-06-24T06:08:41;24.50;78.90
16517;DHT22;8371;52.272;9.746;2023-06-24T06:11:07;24.70;78.20
16517;DHT22;8371;52.272;9.746;2023-06-24T06:13:37;24.70;78.00
16517;DHT22;8371;52.272;9.746;2023-06-24T06:16:00;24.80;77.90
16517;DHT22;8371;52.272;9.746;2023-06-24T06:18:26;24.80;77.60
16517;DHT22;8371;52.272;9.746;2023-06-24T06:20:52;24.90;77.40
16517;DHT22;8371;52.272;9.746;2023-06-24T06:23:17;25.10;75.80
16517;DHT22;8371;52.272;9.746;2023-06-24T06:25:43;25.10;77.30
16517;DHT22;8371;52.272;9.746;2023-06-24T06:28:09;25.20;77.40
16517;DHT22;8371;52.272;9.746;2023-06-24T06:30:34;25.20;77.10
16517;DHT22;8371;52.272;9.746;2023-06-24T06:33:00;25.30;76.90
16517;DHT22;8371;52.272;9.746;2023-06-24T06:35:26;25.40;76.50
16517;DHT22;8371;52.272;9.746;2023-06-24T06:37:52;25.50;75.10
16517;DHT22;8371;52.272;9.746;2023-06-24T06:40:21;25.50;75.40
16517;DHT22;8371;52.272;9.746;2023-06-24T06:42:47;25.50;75.50
16517;DHT22;8371;52.272;9.746;2023-06-24T06:45:13;25.60;75.30
16517;DHT22;8371;52.272;9.746;2023-06-24T06:47:39;25.60;75.50
16517;DHT22;8371;52.272;9.746;2023-06-24T06:50:05;25.90;75.90
16517;DHT22;8371;52.272;9.746;2023-06-24T06:52:31;25.80;75.80
16517;DHT22;8371;52.272;9.746;2023-06-24T06:54:57;25.90;76.00
16517;DHT22;8371;52.272;9.746;2023-06-24T06:57:23;26.10;75.70
16517;DHT22;8371;52.272;9.746;2023-06-24T06:59:49;26.20;75.30
16517;DHT22;8371;52.272;9.746;2023-06-24T07:02:17;26.30;75.20
16517;DHT22;8371;52.272;9.746;2023-06-24T07:04:44;26.40;74.80
16517;DHT22;8371;52.272;9.746;2023-06-24T07:07:10;26.60;74.70
16517;DHT22;8371;52.272;9.746;2023-06-24T07:09:35;26.80;74.10
16517;DHT22;8371;52.272;9.746;2023-06-24T07:12:01;26.90;74.10
16517;DHT22;8371;52.272;9.746;2023-06-24T07:14:27;27.10;74.00
16517;DHT22;8371;52.272;9.746;2023-06-24T07:16:53;27.20;73.60
16517;DHT22;8371;52.272;9.746;2023-06-24T07:19:18;27.30;73.00
16517;DHT22;8371;52.272;9.746;2023-06-24T07:21:44;27.40;72.70
16517;DHT22;8371;52.272;9.746;2023-06-24T07:24:10;27.60;72.30
16517;DHT22;8371;52.272;9.746;2023-06-24T07:26:36;27.80;72.20
16517;DHT22;8371;52.272;9.746;2023-06-24T07:29:05;27.80;71.80
16517;DHT22;8371;52.272;9.746;2023-06-24T07:31:31;28.00;71.80
16517;DHT22;8371;52.272;9.746;2023-06-24T07:33:56;28.20;71.70
16517;DHT22;8371;52.272;9.746;2023-06-24T07:36:22;28.30;71.10
16517;DHT22;8371;52.272;9.746;2023-06-24T07:38:48;28.50;70.90
16517;DHT22;8371;52.272;9.746;2023-06-24T07:41:13;28.60;70.40
16517;DHT22;8371;52.272;9.746;2023-06-24T07:43:39;28.80;69.70
16517;DHT22;8371;52.272;9.746;2023-06-24T07:46:04;28.90;69.20
16517;DHT22;8371;52.272;9.746;2023-06-24T07:48:30;29.00;69.00
16517;DHT22;8371;52.272;9.746;2023-06-24T07:50:56;29.10;68.10
16517;DHT22;8371;52.272;9.746;2023-06-24T07:53:21;29.20;67.40
16517;DHT22;8371;52.272;9.746;2023-06-24T07:55:47;29.30;67.20
16517;DHT22;8371;52.272;9.746;2023-06-24T07:58:13;29.30;66.70
16517;DHT22;8371;52.272;9.746;2023-06-24T08:00:38;29.40;66.70
16517;DHT22;8371;52.272;9.746;2023-06-24T08:03:04;29.50;66.70
16517;DHT22;8371;52.272;9.746;2023-06-24T08:05:30;29.60;66.40
16517;DHT22;8371;52.272;9.746;2023-06-24T08:07:55;29.60;66.00
16517;DHT22;8371;52.272;9.746;2023-06-24T08:10:21;29.80;65.80
16517;DHT22;8371;52.272;9.746;2023-06-24T08:12:47;29.80;65.00
16517;DHT22;8371;52.272;9.746;2023-06-24T08:15:12;29.90;64.50
16517;DHT22;8371;52.272;9.746;2023-06-24T08:17:38;30.00;64.50
16517;DHT22;8371;52.272;9.746;2023-06-24T08:20:04;30.10;64.70
16517;DHT22;8371;52.272;9.746;2023-06-24T08:22:30;30.20;64.70
16517;DHT22;8371;52.272;9.746;2023-06-24T08:24:58;30.30;64.30
16517;DHT22;8371;52.272;9.746;2023-06-24T08:27:24;30.40;64.20
16517;DHT22;8371;52.272;9.746;2023-06-24T08:29:49;30.60;63.80
16517;DHT22;8371;52.272;9.746;2023-06-24T08:32:15;30.70;63.50
16517;DHT22;8371;52.272;9.746;2023-06-24T08:34:47;30.80;63.30
16517;DHT22;8371;52.272;9.746;2023-06-24T08:37:12;30.90;63.40
16517;DHT22;8371;52.272;9.746;2023-06-24T08:39:38;31.10;62.80
16517;DHT22;8371;52.272;9.746;2023-06-24T08:42:04;31.10;62.70
16517;DHT22;8371;52.272;9.746;2023-06-24T08:44:30;31.30;61.90
16517;DHT22;8371;52.272;9.746;2023-06-24T08:46:56;31.40;61.20
16517;DHT22;8371;52.272;9.746;2023-06-24T08:52:08;31.60;61.20
16517;DHT22;8371;52.272;9.746;2023-06-24T08:54:35;31.70;60.50
16517;DHT22;8371;52.272;9.746;2023-06-24T08:57:02;31.80;60.10
16517;DHT22;8371;52.272;9.746;2023-06-24T08:59:31;31.90;59.80
16517;DHT22;8371;52.272;9.746;2023-06-24T09:01:57;31.90;59.60
16517;DHT22;8371;52.272;9.746;2023-06-24T09:04:22;32.00;59.20
16517;DHT22;8371;52.272;9.746;2023-06-24T09:06:48;32.10;59.60
16517;DHT22;8371;52.272;9.746;2023-06-24T09:09:18;32.10;58.90
16517;DHT22;8371;52.272;9.746;2023-06-24T09:11:53;32.10;58.60
16517;DHT22;8371;52.272;9.746;2023-06-24T09:14:19;32.20;58.40
16517;DHT22;8371;52.272;9.746;2023-06-24T09:16:57;32.20;58.10
16517;DHT22;8371;52.272;9.746;2023-06-24T09:19:25;32.20;57.90
16517;DHT22;8371;52.272;9.746;2023-06-24T09:22:09;32.30;58.10
16517;DHT22;8371;52.272;9.746;2023-06-24T09:24:34;32.40;58.10
16517;DHT22;8371;52.272;9.746;2023-06-24T09:27:00;32.50;58.20
16517;DHT22;8371;52.272;9.746;2023-06-24T09:29:28;32.50;57.50
16517;DHT22;8371;52.272;9.746;2023-06-24T09:31:53;32.60;57.40
16517;DHT22;8371;52.272;9.746;2023-06-24T09:34:21;32.70;57.20
16517;DHT22;8371;52.272;9.746;2023-06-24T09:36:55;32.70;56.70
16517;DHT22;8371;52.272;9.746;2023-06-24T09:39:22;32.80;56.20
16517;DHT22;8371;52.272;9.746;2023-06-24T09:41:49;32.90;56.60
16517;DHT22;8371;52.272;9.746;2023-06-24T09:44:18;32.90;56.50
16517;DHT22;8371;52.272;9.746;2023-06-24T09:46:47;32.90;56.60
16517;DHT22;8371;52.272;9.746;2023-06-24T09:49:12;33.10;56.30
16517;DHT22;8371;52.272;9.746;2023-06-24T09:51:44;33.30;56.00
16517;DHT22;8371;52.272;9.746;2023-06-24T09:54:12;33.40;55.50
16517;DHT22;8371;52.272;9.746;2023-06-24T09:56:43;33.40;54.70
16517;DHT22;8371;52.272;9.746;2023-06-24T09:59:12;33.50;55.00
16517;DHT22;8371;52.272;9.746;2023-06-24T10:01:39;33.60;55.10
16517;DHT22;8371;52.272;9.746;2023-06-24T10:04:06;33.60;55.10
16517;DHT22;8371;52.272;9.746;2023-06-24T10:06:33;33.70;55.00
16517;DHT22;8371;52.272;9.746;2023-06-24T10:09:01;33.70;54.60
16517;DHT22;8371;52.272;9.746;2023-06-24T10:11:27;33.80;54.20
16517;DHT22;8371;52.272;9.746;2023-06-24T10:13:53;33.90;54.00
16517;DHT22;8371;52.272;9.746;2023-06-24T10:16:20;33.90;53.80
16517;DHT22;8371;52.272;9.746;2023-06-24T10:18:46;33.90;53.50
16517;DHT22;8371;52.272;9.746;2023-06-24T10:21:15;33.90;53.30
16517;DHT22;8371;52.272;9.746;2023-06-24T10:23:50;34.00;53.60
16517;DHT22;8371;52.272;9.746;2023-06-24T10:26:21;34.00;53.40
16517;DHT22;8371;52.272;9.746;2023-06-24T10:36:54;34.40;52.90
16517;DHT22;8371;52.272;9.746;2023-06-24T10:39:45;34.50;52.60
16517;DHT22;8371;52.272;9.746;2023-06-24T10:44:54;34.60;52.40
16517;DHT22;8371;52.272;9.746;2023-06-24T10:47:22;34.60;52.10
16517;DHT22;8371;52.272;9.746;2023-06-24T10:49:48;34.60;52.00
16517;DHT22;8371;52.272;9.746;2023-06-24T10:52:14;34.60;51.80
16517;DHT22;8371;52.272;9.746;2023-06-24T10:54:41;34.60;51.40
16517;DHT22;8371;52.272;9.746;2023-06-24T10:57:07;34.80;51.90
16517;DHT22;8371;52.272;9.746;2023-06-24T10:59:41;34.70;51.60
16517;DHT22;8371;52.272;9.746;2023-06-24T11:02:08;34.80;51.10
16517;DHT22;8371;52.272;9.746;2023-06-24T11:04:51;34.90;50.80
16517;DHT22;8371;52.272;9.746;2023-06-24T11:07:29;35.00;50.90
16517;DHT22;8371;52.272;9.746;2023-06-24T11:09:58;35.10;51.10
16517;DHT22;8371;52.272;9.746;2023-06-24T11:12:26;35.10;51.30
16517;DHT22;8371;52.272;9.746;2023-06-24T11:14:57;35.20;51.00
16517;DHT22;8371;52.272;9.746;2023-06-24T11:17:27;35.30;50.00
16517;DHT22;8371;52.272;9.746;2023-06-24T11:19:54;35.50;50.50
16517;DHT22;8371;52.272;9.746;2023-06-24T11:22:21;35.50;50.50
16517;DHT22;8371;52.272;9.746;2023-06-24T11:24:47;35.60;50.20
16517;DHT22;8371;52.272;9.746;2023-06-24T11:27:14;35.70;50.00
16517;DHT22;8371;52.272;9.746;2023-06-24T11:29:39;35.90;50.10
16517;DHT22;8371;52.272;9.746;2023-06-24T11:32:09;36.00;50.10
16517;DHT22;8371;52.272;9.746;2023-06-24T11:34:36;36.10;49.90
16517;DHT22;8371;52.272;9.746;2023-06-24T11:40:07;36.30;49.60
16517;DHT22;8371;52.272;9.746;2023-06-24T11:42:41;36.40;48.60
16517;DHT22;8371;52.272;9.746;2023-06-24T11:45:09;36.50;48.30
16517;DHT22;8371;52.272;9.746;2023-06-24T11:47:37;36.50;48.50
16517;DHT22;8371;52.272;9.746;2023-06-24T11:50:05;36.50;48.30
16517;DHT22;8371;52.272;9.746;2023-06-24T11:52:46;36.60;48.10
16517;DHT22;8371;52.272;9.746;2023-06-24T11:55:21;36.70;48.20
16517;DHT22;8371;52.272;9.746;2023-06-24T11:57:56;36.80;48.00
16517;DHT22;8371;52.272;9.746;2023-06-24T12:00:25;36.90;47.90
16517;DHT22;8371;52.272;9.746;2023-06-24T12:02:58;37.00;47.30
16517;DHT22;8371;52.272;9.746;2023-06-24T12:05:32;37.00;47.10
16517;DHT22;8371;52.272;9.746;2023-06-24T12:08:01;37.10;47.40
16517;DHT22;8371;52.272;9.746;2023-06-24T12:10:28;37.10;46.80
16517;DHT22;8371;52.272;9.746;2023-06-24T12:12:56;37.10;46.30
16517;DHT22;8371;52.272;9.746;2023-06-24T12:15:22;37.10;45.90
16517;DHT22;8371;52.272;9.746;2023-06-24T12:17:48;37.00;45.80
16517;DHT22;8371;52.272;9.746;2023-06-24T12:20:15;36.90;45.60
16517;DHT22;8371;52.272;9.746;2023-06-24T12:22:45;36.80;45.80
16517;DHT22;8371;52.272;9.746;2023-06-24T12:25:11;36.80;45.80
16517;DHT22;8371;52.272;9.746;2023-06-24T12:27:37;36.80;46.50
16517;DHT22;8371;52.272;9.746;2023-06-24T12:30:04;36.80;45.50
16517;DHT22;8371;52.272;9.746;2023-06-24T12:32:29;36.70;45.00
16517;DHT22;8371;52.272;9.746;2023-06-24T12:34:55;36.70;45.10
16517;DHT22;8371;52.272;9.746;2023-06-24T12:37:21;36.60;45.00
16517;DHT22;8371;52.272;9.746;2023-06-24T12:39:47;36.50;44.90
16517;DHT22;8371;52.272;9.746;2023-06-24T12:42:13;36.40;45.40
16517;DHT22;8371;52.272;9.746;2023-06-24T12:44:39;36.40;45.80
16517;DHT22;8371;52.272;9.746;2023-06-24T12:47:05;36.40;45.90
16517;DHT22;8371;52.272;9.746;2023-06-24T12:49:30;36.40;46.10
16517;DHT22;8371;52.272;9.746;2023-06-24T12:51:56;36.40;45.30
16517;DHT22;8371;52.272;9.746;2023-06-24T12:54:22;36.30;45.10
16517;DHT22;8371;52.272;9.746;2023-06-24T12:56:47;36.20;45.00
16517;DHT22;8371;52.272;9.746;2023-06-24T12:59:13;36.20;44.80
16517;DHT22;8371;52.272;9.746;2023-06-24T13:01:39;36.20;44.80
16517;DHT22;8371;52.272;9.746;2023-06-24T13:04:05;36.20;45.10
16517;DHT22;8371;52.272;9.746;2023-06-24T13:06:30;36.10;44.90
16517;DHT22;8371;52.272;9.746;2023-06-24T13:08:56;36.10;45.10
16517;DHT22;8371;52.272;9.746;2023-06-24T13:11:21;36.00;44.80
16517;DHT22;8371;52.272;9.746;2023-06-24T13:13:47;36.00;44.90
16517;DHT22;8371;52.272;9.746;2023-06-24T13:16:13;36.00;44.80
16517;DHT22;8371;52.272;9.746;2023-06-24T13:18:39;35.90;44.60
16517;DHT22;8371;52.272;9.746;2023-06-24T13:21:04;35.90;44.40
16517;DHT22;8371;52.272;9.746;2023-06-24T13:23:30;35.80;44.70
16517;DHT22;8371;52.272;9.746;2023-06-24T13:25:56;35.80;44.50
16517;DHT22;8371;52.272;9.746;2023-06-24T13:28:31;35.80;44.70
16517;DHT22;8371;52.272;9.746;2023-06-24T13:30:58;35.90;44.70
16517;DHT22;8371;52.272;9.746;2023-06-24T13:33:24;36.00;45.00
16517;DHT22;8371;52.272;9.746;2023-06-24T13:35:51;36.10;44.60
16517;DHT22;8371;52.272;9.746;2023-06-24T13:38:17;36.20;44.50
16517;DHT22;8371;52.272;9.746;2023-06-24T13:40:43;36.30;44.90
16517;DHT22;8371;52.272;9.746;2023-06-24T13:43:09;36.30;44.00
16517;DHT22;8371;52.272;9.746;2023-06-24T13:45:35;36.30;44.00
16517;DHT22;8371;52.272;9.746;2023-06-24T13:48:01;36.40;44.00
16517;DHT22;8371;52.272;9.746;2023-06-24T13:50:26;36.50;44.50
16517;DHT22;8371;52.272;9.746;2023-06-24T13:52:52;36.50;43.70
16517;DHT22;8371;52.272;9.746;2023-06-24T13:55:17;36.50;43.30
16517;DHT22;8371;52.272;9.746;2023-06-24T13:57:44;36.50;43.20
16517;DHT22;8371;52.272;9.746;2023-06-24T14:00:10;36.40;43.00
16517;DHT22;8371;52.272;9.746;2023-06-24T14:02:36;36.40;43.00
16517;DHT22;8371;52.272;9.746;2023-06-24T14:05:03;36.30;42.90
16517;DHT22;8371;52.272;9.746;2023-06-24T14:07:29;36.20;42.60
16517;DHT22;8371;52.272;9.746;2023-06-24T14:09:55;36.10;42.50
16517;DHT22;8371;52.272;9.746;2023-06-24T14:12:21;35.90;42.60
16517;DHT22;8371;52.272;9.746;2023-06-24T14:14:46;35.80;42.50
16517;DHT22;8371;52.272;9.746;2023-06-24T14:17:12;35.70;42.70
16517;DHT22;8371;52.272;9.746;2023-06-24T14:19:39;35.60;43.20
16517;DHT22;8371;52.272;9.746;2023-06-24T14:22:05;35.60;43.20
16517;DHT22;8371;52.272;9.746;2023-06-24T14:24:31;35.60;43.00
16517;DHT22;8371;52.272;9.746;2023-06-24T14:26:57;35.50;43.50
16517;DHT22;8371;52.272;9.746;2023-06-24T14:29:24;35.50;43.20
16517;DHT22;8371;52.272;9.746;2023-06-24T14:31:52;35.50;43.40
16517;DHT22;8371;52.272;9.746;2023-06-24T14:34:18;35.60;43.10
16517;DHT22;8371;52.272;9.746;2023-06-24T14:36:44;35.50;43.30
16517;DHT22;8371;52.272;9.746;2023-06-24T14:39:13;35.80;43.20
16517;DHT22;8371;52.272;9.746;2023-06-24T14:41:39;35.80;42.90
16517;DHT22;8371;52.272;9.746;2023-06-24T14:44:05;35.80;43.00
16517;DHT22;8371;52.272;9.746;2023-06-24T14:46:30;35.80;42.70
16517;DHT22;8371;52.272;9.746;2023-06-24T14:48:56;35.80;42.30
16517;DHT22;8371;52.272;9.746;2023-06-24T14:51:24;35.80;42.40
16517;DHT22;8371;52.272;9.746;2023-06-24T14:53:49;35.70;42.10
16517;DHT22;8371;52.272;9.746;2023-06-24T14:56:15;35.60;42.00
16517;DHT22;8371;52.272;9.746;2023-06-24T14:58:41;35.50;42.30
16517;DHT22;8371;52.272;9.746;2023-06-24T15:01:06;35.40;42.10
16517;DHT22;8371;52.272;9.746;2023-06-24T15:03:32;35.30;42.00
16517;DHT22;8371;52.272;9.746;2023-06-24T15:05:58;35.40;42.20
16517;DHT22;8371;52.272;9.746;2023-06-24T15:08:23;35.30;41.90
16517;DHT22;8371;52.272;9.746;2023-06-24T15:10:51;35.30;42.20
16517;DHT22;8371;52.272;9.746;2023-06-24T15:13:17;35.30;42.20
16517;DHT22;8371;52.272;9.746;2023-06-24T15:15:42;35.20;42.40
16517;DHT22;8371;52.272;9.746;2023-06-24T15:18:08;35.20;42.60
16517;DHT22;8371;52.272;9.746;2023-06-24T15:20:34;35.30;42.90
16517;DHT22;8371;52.272;9.746;2023-06-24T15:22:59;35.30;42.60
16517;DHT22;8371;52.272;9.746;2023-06-24T15:25:25;35.40;42.90
16517;DHT22;8371;52.272;9.746;2023-06-24T15:27:52;35.40;42.50
16517;DHT22;8371;52.272;9.746;2023-06-24T15:30:18;35.50;42.60
16517;DHT22;8371;52.272;9.746;2023-06-24T15:32:44;35.50;42.20
16517;DHT22;8371;52.272;9.746;2023-06-24T15:35:11;35.50;42.10
16517;DHT22;8371;52.272;9.746;2023-06-24T15:37:37;35.40;42.00
16517;DHT22;8371;52.272;9.746;2023-06-24T15:40:03;35.40;42.00
16517;DHT22;8371;52.272;9.746;2023-06-24T15:42:29;35.30;41.80
16517;DHT22;8371;52.272;9.746;2023-06-24T15:44:55;35.20;42.00
16517;DHT22;8371;52.272;9.746;2023-06-24T15:47:21;35.00;42.20
16517;DHT22;8371;52.272;9.746;2023-06-24T15:49:47;34.90;42.30
16517;DHT22;8371;52.272;9.746;2023-06-24T15:52:13;34.80;42.90
16517;DHT22;8371;52.272;9.746;2023-06-24T15:54:39;34.60;42.70
16517;DHT22;8371;52.272;9.746;2023-06-24T15:57:04;34.50;42.40
16517;DHT22;8371;52.272;9.746;2023-06-24T15:59:30;34.40;42.90
16517;DHT22;8371;52.272;9.746;2023-06-24T16:01:56;34.40;43.10
16517;DHT22;8371;52.272;9.746;2023-06-24T16:04:21;34.30;43.10
16517;DHT22;8371;52.272;9.746;2023-06-24T16:06:47;34.30;43.10
16517;DHT22;8371;52.272;9.746;2023-06-24T16:09:13;34.30;43.10